Time;durP1;ratioP1;P1;durP2;ratioP2;P2;SDS_P1;SDS_P2;PMS_P1;PMS_P2;Temp;Humidity;BMP_temperature;BMP_pressure;BME280_temperature;BME280_humidity;BME280_pressure;Samples;Min_cycle;Max_cycle;Signal;HPM_P1;HPM_P2
2021/07/08 00:02:54;;;;;;;2.78;1.10;;;15.30;99.90;;;;;;20485579;28;20039;-50
2021/07/08 00:12:58;;;;;;;3.97;1.45;;;15.20;99.90;;;;;;20493076;28;20530;-50
2021/07/08 00:22:59;;;;;;;3.55;1.13;;;15.10;99.90;;;;;;20490315;28;20562;-50
2021/07/08 00:33:00;;;;;;;3.13;1.17;;;15.10;99.90;;;;;;20496061;28;20045;-50
2021/07/08 00:43:02;;;;;;;4.03;1.38;;;15.10;99.90;;;;;;20511413;28;20537;-50
2021/07/08 00:53:04;;;;;;;2.90;1.10;;;15.10;99.90;;;;;;20494335;28;20046;-50
2021/07/08 01:03:10;;;;;;;1.63;0.73;;;15.20;99.90;;;;;;20495166;28;20097;-50
2021/07/08 01:13:13;;;;;;;2.33;0.93;;;15.00;99.90;;;;;;20515986;28;20472;-50
2021/07/08 01:23:15;;;;;;;2.58;0.98;;;15.00;99.90;;;;;;20502959;28;20066;-50
2021/07/08 01:33:16;;;;;;;2.40;0.90;;;15.00;99.90;;;;;;20498443;28;20053;-50
2021/07/08 01:43:18;;;;;;;2.45;1.00;;;14.90;99.90;;;;;;20488331;28;20494;-50
2021/07/08 01:53:19;;;;;;;3.40;1.55;;;14.80;99.90;;;;;;20491162;28;20651;-50
2021/07/08 02:03:20;;;;;;;3.50;1.40;;;14.80;99.90;;;;;;20482498;28;20474;-50
2021/07/08 02:13:22;;;;;;;4.28;1.35;;;14.80;99.90;;;;;;20501441;28;20085;-50
2021/07/08 02:23:23;;;;;;;8.23;1.10;;;15.00;99.90;;;;;;20499612;28;20042;-50
2021/07/08 02:33:25;;;;;;;2.28;1.17;;;15.10;99.90;;;;;;20481648;28;20039;-50
2021/07/08 02:43:27;;;;;;;2.55;1.20;;;15.10;99.90;;;;;;20498678;28;20090;-50
2021/07/08 02:53:28;;;;;;;3.08;1.27;;;15.10;99.90;;;;;;20480378;28;20585;-50
2021/07/08 03:03:30;;;;;;;2.20;1.10;;;15.10;99.90;;;;;;20492537;28;20689;-50
2021/07/08 03:13:32;;;;;;;3.78;1.50;;;15.00;99.90;;;;;;20486118;28;20039;-50
2021/07/08 03:23:35;;;;;;;4.55;1.50;;;14.90;99.90;;;;;;20496706;28;20050;-51
2021/07/08 03:33:36;;;;;;;3.38;1.05;;;14.70;99.90;;;;;;20473850;28;20035;-50
2021/07/08 03:43:38;;;;;;;3.50;1.25;;;14.50;99.90;;;;;;20489212;28;20117;-49
2021/07/08 03:53:39;;;;;;;2.10;0.80;;;14.60;99.90;;;;;;20498096;28;20043;-49
2021/07/08 04:03:40;;;;;;;5.05;1.50;;;14.40;99.90;;;;;;20498842;28;20669;-51
2021/07/08 04:13:41;;;;;;;3.95;1.35;;;14.40;99.90;;;;;;20498661;28;20143;-50
2021/07/08 04:23:42;;;;;;;2.85;1.40;;;14.50;99.90;;;;;;20506684;28;20566;-50
2021/07/08 04:33:46;;;;;;;3.42;1.45;;;14.70;99.90;;;;;;20498796;28;20422;-50
2021/07/08 04:43:47;;;;;;;2.80;1.30;;;14.90;99.90;;;;;;20500278;28;20501;-50
2021/07/08 04:53:48;;;;;;;3.72;1.10;;;15.10;99.90;;;;;;20514773;28;20039;-50
2021/07/08 05:03:49;;;;;;;3.17;1.30;;;15.30;99.90;;;;;;20487590;28;20475;-49
2021/07/08 05:13:50;;;;;;;3.30;1.35;;;15.50;99.90;;;;;;20505470;28;20039;-51
2021/07/08 05:23:57;;;;;;;4.75;1.73;;;15.70;99.90;;;;;;20481352;28;20487;-48
2021/07/08 05:33:58;;;;;;;3.00;1.40;;;15.90;99.90;;;;;;20487867;28;20027;-49
2021/07/08 05:43:59;;;;;;;6.20;2.05;;;16.10;99.90;;;;;;20486260;28;20406;-48
2021/07/08 05:54:00;;;;;;;3.42;1.48;;;16.30;99.90;;;;;;20495263;28;20476;-48
2021/07/08 06:04:01;;;;;;;38.65;13.55;;;16.50;99.90;;;;;;20494465;28;20475;-48
2021/07/08 06:14:03;;;;;;;4.95;2.13;;;16.80;99.90;;;;;;20482551;28;20598;-48
2021/07/08 06:24:04;;;;;;;3.45;1.65;;;17.00;99.90;;;;;;20479052;28;20070;-48
2021/07/08 06:34:06;;;;;;;2.63;1.23;;;17.30;99.90;;;;;;20478083;28;20499;-48
2021/07/08 06:44:08;;;;;;;3.20;1.27;;;17.60;99.90;;;;;;20493509;28;20519;-48
2021/07/08 06:54:09;;;;;;;2.17;1.00;;;18.20;99.90;;;;;;20479695;28;20606;-48
2021/07/08 07:04:10;;;;;;;2.42;1.00;;;18.60;99.90;;;;;;20475120;28;20538;-47
2021/07/08 07:14:11;;;;;;;11.93;4.97;;;18.80;99.90;;;;;;20488171;28;20593;-48
2021/07/08 07:24:14;;;;;;;3.17;1.27;;;19.00;99.90;;;;;;20495193;28;20077;-48
2021/07/08 07:34:15;;;;;;;2.88;1.58;;;19.00;99.90;;;;;;20486279;28;20098;-48
2021/07/08 07:44:17;;;;;;;2.28;1.10;;;19.10;99.90;;;;;;20488314;28;20650;-48
2021/07/08 07:54:18;;;;;;;2.67;0.95;;;19.10;99.90;;;;;;20475907;28;20561;-48
2021/07/08 08:04:19;;;;;;;2.88;0.98;;;19.20;99.90;;;;;;20486368;28;20495;-47
2021/07/08 08:14:20;;;;;;;3.67;1.17;;;19.60;99.90;;;;;;20479244;28;20546;-48
2021/07/08 08:24:22;;;;;;;1.88;0.63;;;20.00;99.90;;;;;;20495956;28;20676;-47
2021/07/08 08:34:23;;;;;;;4.35;0.70;;;20.60;99.90;;;;;;20501545;28;20487;-48
2021/07/08 08:44:24;;;;;;;3.80;1.45;;;20.40;99.90;;;;;;20546539;28;20118;-47
2021/07/08 08:54:25;;;;;;;13.77;2.08;;;20.50;99.90;;;;;;20538556;28;20586;-48
2021/07/08 09:04:33;;;;;;;2.08;0.50;;;20.40;99.90;;;;;;20530582;28;20468;-47
2021/07/08 09:14:34;;;;;;;1.17;0.63;;;20.60;99.90;;;;;;20517377;28;20511;-48
2021/07/08 09:24:35;;;;;;;2.35;1.10;;;20.50;99.90;;;;;;20513212;28;20664;-47
2021/07/08 09:34:39;;;;;;;2.05;0.68;;;20.80;99.90;;;;;;20524648;28;20368;-48
2021/07/08 09:44:41;;;;;;;1.50;0.90;;;20.70;99.90;;;;;;20520901;28;20050;-48
2021/07/08 09:55:33;;;;;;;1.63;0.80;;;21.20;99.90;;;;;;20507195;28;20691;-48
2021/07/08 10:05:07;;;;;;;1.77;0.82;;;22.10;99.90;;;;;;20507482;28;20484;-48
2021/07/08 10:15:11;;;;;;;1.85;0.90;;;22.30;99.90;;;;;;20516357;28;20480;-48
2021/07/08 10:25:13;;;;;;;2.35;1.00;;;22.60;99.90;;;;;;20533015;28;20112;-48
2021/07/08 10:35:14;;;;;;;1.75;0.85;;;22.60;99.90;;;;;;20538029;28;20682;-48
2021/07/08 10:45:22;;;;;;;2.78;1.02;;;22.60;99.90;;;;;;20536818;28;20392;-48
2021/07/08 10:55:40;;;;;;;2.10;1.10;;;23.40;99.90;;;;;;20522022;28;20133;-48
2021/07/08 11:05:56;;;;;;;2.42;1.13;;;23.30;99.90;;;;;;20521574;28;20507;-48
2021/07/08 11:15:57;;;;;;;2.13;1.00;;;23.70;99.90;;;;;;20494770;28;20688;-48
2021/07/08 11:25:58;;;;;;;2.03;0.90;;;24.20;99.90;;;;;;20488584;28;20773;-48
2021/07/08 11:36:07;;;;;;;2.08;0.98;;;24.10;99.90;;;;;;20518524;28;20510;-48
2021/07/08 11:46:11;;;;;;;10.43;1.30;;;24.20;99.90;;;;;;20509397;28;20376;-48
2021/07/08 11:56:16;;;;;;;2.58;1.08;;;24.40;99.90;;;;;;20513903;28;20447;-48
2021/07/08 12:06:20;;;;;;;4.20;1.50;;;24.20;99.90;;;;;;20498825;28;20509;-48
2021/07/08 12:16:36;;;;;;;3.72;1.35;;;23.40;99.90;;;;;;20539448;28;20506;-48
2021/07/08 12:26:42;;;;;;;3.40;1.13;;;23.20;99.90;;;;;;20520722;28;20039;-48
2021/07/08 12:36:44;;;;;;;2.53;1.20;;;23.50;99.90;;;;;;20536448;28;20467;-48
2021/07/08 12:46:45;;;;;;;2.58;1.13;;;23.60;99.90;;;;;;20546209;28;20054;-48
2021/07/08 12:57:13;;;;;;;8.10;1.60;;;23.00;99.90;;;;;;20510037;28;20058;-48
2021/07/08 13:07:21;;;;;;;2.37;1.40;;;23.60;99.90;;;;;;20526812;28;20495;-48
2021/07/08 13:17:30;;;;;;;3.92;1.90;;;23.90;99.90;;;;;;20529989;28;20490;-48
2021/07/08 13:27:37;;;;;;;3.70;1.65;;;23.80;99.90;;;;;;20535964;28;20076;-48
2021/07/08 13:37:40;;;;;;;2.50;1.38;;;23.30;99.90;;;;;;20542263;28;20577;-48
2021/07/08 13:47:41;;;;;;;5.00;1.40;;;24.30;99.90;;;;;;20516459;28;21094;-48
2021/07/08 13:57:43;;;;;;;2.80;1.50;;;23.60;99.90;;;;;;20516637;28;20494;-48
2021/07/08 14:07:44;;;;;;;6.60;2.13;;;23.10;99.90;;;;;;20529222;28;20524;-48
2021/07/08 14:17:45;;;;;;;8.80;1.38;;;23.10;99.90;;;;;;20512414;28;20047;-48
2021/07/08 14:27:47;;;;;;;3.22;1.60;;;23.60;99.90;;;;;;20529961;28;20042;-48
2021/07/08 14:37:48;;;;;;;4.50;1.70;;;23.30;99.90;;;;;;20513877;28;20505;-48
2021/07/08 14:47:50;;;;;;;2.78;1.38;;;23.70;99.90;;;;;;20539475;28;20325;-49
2021/07/08 14:57:51;;;;;;;3.15;1.58;;;24.00;99.90;;;;;;20522585;28;20717;-48
2021/07/08 15:07:53;;;;;;;3.60;1.98;;;23.70;99.90;;;;;;20513219;28;20565;-48
2021/07/08 15:17:56;;;;;;;3.50;1.38;;;23.90;99.90;;;;;;20502354;28;20505;-49
2021/07/08 15:27:57;;;;;;;3.15;1.55;;;23.50;99.90;;;;;;20525872;28;20527;-48
2021/07/08 15:37:58;;;;;;;3.17;1.85;;;22.90;99.90;;;;;;20526972;28;20589;-48
2021/07/08 15:48:00;;;;;;;3.67;1.23;;;22.50;99.90;;;;;;20484905;28;20498;-48
2021/07/08 15:58:01;;;;;;;2.72;1.25;;;22.40;99.90;;;;;;20502405;28;20225;-49
2021/07/08 16:08:03;;;;;;;2.70;1.20;;;22.70;99.90;;;;;;20516121;28;20051;-48
2021/07/08 16:18:04;;;;;;;2.92;1.25;;;22.70;99.90;;;;;;20506409;28;20499;-48
2021/07/08 16:28:06;;;;;;;4.80;1.50;;;22.70;99.90;;;;;;20487561;28;20121;-48
2021/07/08 16:38:11;;;;;;;2.47;1.05;;;22.80;99.90;;;;;;20484590;28;20038;-48
2021/07/08 16:48:12;;;;;;;2.85;1.23;;;22.70;99.90;;;;;;20484606;28;20133;-48
2021/07/08 16:58:13;;;;;;;2.95;1.20;;;22.40;99.90;;;;;;20497739;28;20047;-48
2021/07/08 17:08:15;;;;;;;2.47;0.98;;;22.60;99.90;;;;;;20487256;28;20050;-48
2021/07/08 17:18:16;;;;;;;2.58;1.20;;;22.60;99.90;;;;;;20482915;28;20043;-48
2021/07/08 17:28:17;;;;;;;4.47;1.23;;;22.50;99.90;;;;;;20531468;28;20581;-48
2021/07/08 17:38:19;;;;;;;2.25;1.02;;;22.50;99.90;;;;;;20485364;28;20045;-48
2021/07/08 17:48:20;;;;;;;2.38;0.88;;;22.30;99.90;;;;;;20477120;28;20046;-48
2021/07/08 17:58:22;;;;;;;2.67;1.20;;;22.00;99.90;;;;;;20485523;28;20086;-48
2021/07/08 18:08:23;;;;;;;1.67;0.65;;;21.70;99.90;;;;;;20473053;28;20142;-48
2021/07/08 18:18:24;;;;;;;5.57;0.73;;;21.60;99.90;;;;;;20470525;28;20043;-48
2021/07/08 18:28:25;;;;;;;2.22;0.90;;;21.20;99.90;;;;;;20479189;28;20071;-48
2021/07/08 18:38:27;;;;;;;1.42;0.77;;;21.20;99.90;;;;;;20474204;28;20036;-48
2021/07/08 18:48:28;;;;;;;2.33;0.73;;;21.40;99.90;;;;;;20471163;28;20039;-48
2021/07/08 18:58:29;;;;;;;5.57;1.17;;;20.90;99.90;;;;;;20474524;28;20054;-48
2021/07/08 19:08:30;;;;;;;4.53;0.98;;;21.00;99.90;;;;;;20474236;28;20043;-48
2021/07/08 19:18:32;;;;;;;1.85;0.55;;;20.70;99.90;;;;;;20478834;28;20043;-48
2021/07/08 19:28:34;;;;;;;2.97;1.00;;;20.50;99.90;;;;;;20468982;28;20045;-48
2021/07/08 19:38:36;;;;;;;1.60;0.60;;;20.30;99.90;;;;;;20478971;28;20142;-48
2021/07/08 19:48:37;;;;;;;1.75;0.60;;;20.30;99.90;;;;;;20471779;28;20044;-48
2021/07/08 19:58:38;;;;;;;2.70;0.75;;;20.10;99.90;;;;;;20487545;28;20652;-47
2021/07/08 20:08:40;;;;;;;1.23;0.63;;;19.90;99.90;;;;;;20478317;28;20046;-48
2021/07/08 20:18:41;;;;;;;3.15;1.02;;;19.70;99.90;;;;;;20472586;28;20467;-48
2021/07/08 20:28:42;;;;;;;2.30;0.75;;;19.40;99.90;;;;;;20469687;28;20503;-48
2021/07/08 20:38:44;;;;;;;2.63;1.35;;;19.20;99.90;;;;;;20485406;28;20055;-48
2021/07/08 20:48:45;;;;;;;2.90;0.80;;;19.10;99.90;;;;;;20482562;28;20043;-48
2021/07/08 20:58:47;;;;;;;3.22;1.17;;;18.90;99.90;;;;;;20496024;28;20145;-47
2021/07/08 21:08:49;;;;;;;2.63;1.20;;;18.70;99.90;;;;;;20498972;28;20046;-48
2021/07/08 21:18:50;;;;;;;4.22;1.63;;;18.60;99.90;;;;;;20493530;28;20109;-48
2021/07/08 21:28:51;;;;;;;5.43;1.23;;;18.40;99.90;;;;;;20505459;28;20039;-47
2021/07/08 21:38:54;;;;;;;2.35;0.98;;;18.30;99.90;;;;;;20481009;28;20158;-48
2021/07/08 21:48:56;;;;;;;6.22;2.42;;;18.10;99.90;;;;;;20489159;28;20151;-48
2021/07/08 21:58:57;;;;;;;3.03;1.45;;;18.10;99.90;;;;;;20477088;28;20074;-48
2021/07/08 22:09:01;;;;;;;4.38;1.92;;;17.90;99.90;;;;;;20476979;28;20050;-48
2021/07/08 22:19:02;;;;;;;4.50;2.10;;;17.90;99.90;;;;;;20486701;28;20043;-48
2021/07/08 22:29:05;;;;;;;4.00;2.25;;;17.70;99.90;;;;;;20488093;28;20049;-48
2021/07/08 22:39:06;;;;;;;3.85;1.60;;;17.50;99.90;;;;;;20485040;28;20039;-48
2021/07/08 22:49:08;;;;;;;4.43;1.52;;;17.30;99.90;;;;;;20481937;28;20039;-47
2021/07/08 22:59:09;;;;;;;6.03;2.15;;;17.10;99.90;;;;;;20477401;28;20511;-48
2021/07/08 23:09:10;;;;;;;7.00;1.80;;;16.90;99.90;;;;;;20478892;28;20047;-48
2021/07/08 23:19:11;;;;;;;5.78;1.60;;;16.80;99.90;;;;;;20476617;28;20412;-48
2021/07/08 23:29:12;;;;;;;5.45;2.00;;;16.70;99.90;;;;;;20479712;28;20145;-48
2021/07/08 23:39:47;;;;;;;4.63;1.25;;;16.60;99.90;;;;;;20479476;28;20510;-47
